Time;durP1;ratioP1;P1;durP2;ratioP2;P2;SDS_P1;SDS_P2;PMS_P1;PMS_P2;Temp;Humidity;BMP_temperature;BMP_pressure;BME280_temperature;BME280_humidity;BME280_pressure;Samples;Min_cycle;Max_cycle;Signal;HPM_P1;HPM_P2
2023/09/14 00:02:21;;;;;;;3.17;1.00;;;12.90;99.90;;;;;;5029394;28;20223;-64
2023/09/14 00:04:48;;;;;;;1.80;1.25;;;12.80;99.90;;;;;;5028202;28;20221;-63
2023/09/14 00:07:17;;;;;;;5.28;1.40;;;12.80;99.90;;;;;;5036919;28;20220;-63
2023/09/14 00:09:43;;;;;;;5.47;1.38;;;10.80;99.90;;;;;;5004085;28;20217;-63
2023/09/14 00:12:10;;;;;;;6.53;1.50;;;12.90;99.90;;;;;;5019750;28;20539;-63
2023/09/14 00:14:37;;;;;;;1.45;0.98;;;12.80;99.90;;;;;;5041797;28;20217;-63
2023/09/14 00:17:06;;;;;;;6.68;1.63;;;12.90;99.90;;;;;;5019216;28;20228;-63
2023/09/14 00:19:32;;;;;;;4.35;1.77;;;12.90;99.90;;;;;;5033728;28;20239;-63
2023/09/14 00:21:59;;;;;;;2.72;1.30;;;12.90;99.90;;;;;;5039146;28;20687;-63
2023/09/14 00:24:27;;;;;;;3.08;1.10;;;12.90;99.90;;;;;;5002208;28;20501;-63
2023/09/14 00:26:54;;;;;;;4.13;1.08;;;12.90;99.90;;;;;;5041390;28;20203;-63
2023/09/14 00:29:21;;;;;;;2.70;1.10;;;12.90;99.90;;;;;;5028795;28;20220;-63
2023/09/14 00:31:47;;;;;;;3.88;1.20;;;12.90;99.90;;;;;;5041228;28;20209;-64
2023/09/14 00:34:14;;;;;;;3.50;1.23;;;13.00;99.90;;;;;;5038050;28;20208;-63
2023/09/14 00:36:41;;;;;;;4.30;1.67;;;13.10;99.90;;;;;;5038240;28;22036;-63
2023/09/14 00:39:10;;;;;;;1.48;1.00;;;13.00;99.90;;;;;;5004284;28;20685;-63
2023/09/14 00:41:38;;;;;;;5.53;1.27;;;13.00;99.90;;;;;;5041031;28;20226;-63
2023/09/14 00:44:05;;;;;;;3.40;1.30;;;12.90;99.90;;;;;;5029847;28;20201;-63
2023/09/14 00:46:33;;;;;;;2.58;1.10;;;12.90;99.90;;;;;;5028466;28;20568;-63
2023/09/14 00:49:01;;;;;;;4.50;1.20;;;12.90;99.90;;;;;;5037741;28;20986;-63
2023/09/14 00:51:29;;;;;;;3.22;1.05;;;12.80;99.90;;;;;;5019447;28;20197;-63
2023/09/14 00:53:57;;;;;;;2.05;1.00;;;12.80;99.90;;;;;;5003776;28;20304;-63
2023/09/14 00:56:26;;;;;;;2.67;0.93;;;12.60;99.90;;;;;;5027217;28;20205;-63
2023/09/14 00:58:55;;;;;;;4.43;1.10;;;12.70;99.90;;;;;;5028567;28;20201;-63
2023/09/14 01:01:22;;;;;;;2.03;0.95;;;12.60;99.90;;;;;;5030323;28;20224;-63
2023/09/14 01:03:49;;;;;;;2.30;1.20;;;12.60;99.90;;;;;;5033862;28;20193;-63
2023/09/14 01:06:16;;;;;;;3.33;1.17;;;;;;;;;;5033161;28;20204;-63
2023/09/14 01:08:43;;;;;;;2.10;1.17;;;12.10;99.90;;;;;;5039875;28;20201;-63
2023/09/14 01:11:10;;;;;;;1.85;0.95;;;12.50;99.90;;;;;;5000748;28;20800;-63
2023/09/14 01:13:44;;;;;;;6.65;1.60;;;12.40;99.90;;;;;;5028156;28;20208;-63
2023/09/14 01:16:25;;;;;;;7.03;1.50;;;12.40;99.90;;;;;;5029534;28;20224;-63
2023/09/14 01:18:59;;;;;;;4.93;1.52;;;12.40;99.90;;;;;;5045199;28;20207;-63
2023/09/14 01:21:41;;;;;;;4.28;1.27;;;12.20;99.90;;;;;;5019700;28;20239;-63
2023/09/14 01:24:18;;;;;;;3.83;0.90;;;12.70;99.90;;;;;;5032613;28;20224;-63
2023/09/14 01:26:47;;;;;;;4.07;1.20;;;12.30;99.90;;;;;;5030741;28;20205;-63
2023/09/14 01:29:13;;;;;;;3.65;1.23;;;12.00;99.90;;;;;;5034787;28;20201;-63
2023/09/14 01:31:41;;;;;;;4.63;1.15;;;12.20;99.90;;;;;;5033670;28;20197;-63
2023/09/14 01:34:08;;;;;;;5.43;1.27;;;12.20;99.90;;;;;;5039231;28;20228;-63
2023/09/14 01:36:42;;;;;;;3.78;1.25;;;12.10;99.90;;;;;;5024725;28;20215;-63
2023/09/14 01:39:10;;;;;;;3.15;1.15;;;12.10;99.90;;;;;;5033389;28;20200;-63
2023/09/14 01:41:37;;;;;;;5.03;1.10;;;12.00;99.90;;;;;;4993030;28;20224;-63
2023/09/14 01:44:06;;;;;;;4.47;1.15;;;12.20;99.90;;;;;;5038462;28;20610;-63
2023/09/14 01:46:34;;;;;;;4.22;1.17;;;12.40;99.90;;;;;;5029257;28;20895;-63
2023/09/14 01:49:01;;;;;;;9.63;1.50;;;12.10;99.90;;;;;;5034609;28;20211;-63
2023/09/14 01:51:29;;;;;;;3.70;0.80;;;12.60;99.90;;;;;;5025590;28;20219;-62
2023/09/14 01:53:56;;;;;;;6.35;1.40;;;12.20;99.90;;;;;;5037085;28;20332;-63
2023/09/14 01:56:23;;;;;;;2.70;1.25;;;12.10;99.90;;;;;;5000706;28;20201;-63
2023/09/14 01:58:50;;;;;;;6.22;1.33;;;12.10;99.90;;;;;;5036441;28;20212;-63
2023/09/14 02:01:18;;;;;;;8.68;1.35;;;12.00;99.90;;;;;;5030891;28;20225;-63
2023/09/14 02:03:45;;;;;;;2.70;1.02;;;12.00;99.90;;;;;;5032160;28;20205;-63
2023/09/14 02:06:12;;;;;;;2.97;1.00;;;12.00;99.90;;;;;;5038460;28;20230;-63
2023/09/14 02:08:38;;;;;;;1.45;0.95;;;12.00;99.90;;;;;;5029975;28;21237;-63
2023/09/14 02:11:05;;;;;;;4.25;1.00;;;12.00;99.90;;;;;;5039367;28;20670;-63
2023/09/14 02:13:34;;;;;;;3.22;1.10;;;12.00;99.90;;;;;;5001098;28;20212;-63
2023/09/14 02:16:01;;;;;;;9.80;1.33;;;12.10;99.90;;;;;;5035530;28;20220;-63
2023/09/14 02:18:30;;;;;;;1.88;1.13;;;12.10;99.90;;;;;;5023963;28;20219;-63
2023/09/14 02:20:57;;;;;;;3.53;1.27;;;12.00;99.90;;;;;;5036191;28;23120;-63
2023/09/14 02:23:23;;;;;;;2.63;1.35;;;12.00;99.90;;;;;;5025936;28;20217;-63
2023/09/14 02:25:51;;;;;;;2.28;1.02;;;11.90;99.90;;;;;;5040526;28;20223;-63
2023/09/14 02:28:19;;;;;;;4.18;1.10;;;12.00;99.90;;;;;;4997957;28;20722;-63
2023/09/14 02:30:46;;;;;;;2.60;1.00;;;12.00;99.90;;;;;;5037004;28;20201;-63
2023/09/14 02:33:13;;;;;;;1.40;1.02;;;12.10;99.90;;;;;;5021560;28;20208;-63
2023/09/14 02:35:42;;;;;;;2.17;1.00;;;12.00;99.90;;;;;;5033984;28;20201;-63
2023/09/14 02:38:09;;;;;;;6.90;1.13;;;;;;;;;;5034427;28;20197;-63
2023/09/14 02:40:36;;;;;;;3.58;1.05;;;12.00;99.90;;;;;;5023177;28;20201;-63
2023/09/14 02:43:04;;;;;;;1.83;1.00;;;12.10;99.90;;;;;;5038072;28;20208;-63
2023/09/14 02:45:30;;;;;;;3.85;1.27;;;12.10;99.90;;;;;;5010844;28;20216;-63
2023/09/14 02:47:57;;;;;;;3.63;1.17;;;12.10;99.90;;;;;;5029223;28;20205;-63
2023/09/14 02:50:24;;;;;;;1.88;1.40;;;12.20;99.90;;;;;;5035752;28;20209;-63
2023/09/14 02:52:52;;;;;;;2.78;1.42;;;12.10;99.90;;;;;;5031879;28;20208;-63
2023/09/14 02:55:19;;;;;;;1.92;1.02;;;12.00;99.90;;;;;;5021374;28;20204;-63
2023/09/14 02:57:46;;;;;;;2.47;0.82;;;12.20;99.90;;;;;;5032127;28;20204;-63
2023/09/14 03:00:17;;;;;;;3.80;1.33;;;12.20;99.90;;;;;;4995274;28;20211;-63
2023/09/14 03:02:44;;;;;;;5.60;1.25;;;12.30;99.90;;;;;;5035888;28;24960;-63
2023/09/14 03:05:11;;;;;;;3.67;0.90;;;12.70;99.90;;;;;;5027787;28;20215;-63
2023/09/14 03:07:38;;;;;;;2.15;1.13;;;12.30;99.90;;;;;;5042594;28;20283;-64
2023/09/14 03:10:07;;;;;;;2.35;1.00;;;12.30;99.90;;;;;;5028796;28;20206;-63
2023/09/14 03:12:34;;;;;;;5.32;1.30;;;12.30;99.90;;;;;;5016130;28;20978;-63
2023/09/14 03:15:01;;;;;;;8.68;1.27;;;12.30;99.90;;;;;;5003930;28;20236;-63
2023/09/14 03:17:28;;;;;;;6.80;1.23;;;12.40;99.90;;;;;;5035553;28;20196;-63
2023/09/14 03:19:55;;;;;;;6.38;1.40;;;12.40;99.90;;;;;;5031866;28;20212;-64
2023/09/14 03:22:21;;;;;;;6.85;1.20;;;12.60;99.90;;;;;;5033281;28;20232;-63
2023/09/14 03:24:48;;;;;;;3.97;1.15;;;12.50;99.90;;;;;;5041680;28;20203;-63
2023/09/14 03:27:16;;;;;;;3.72;1.00;;;12.60;99.90;;;;;;5021062;28;20217;-63
2023/09/14 03:29:43;;;;;;;1.08;0.95;;;12.60;99.90;;;;;;5041570;28;20263;-63
2023/09/14 03:32:10;;;;;;;5.28;1.23;;;12.70;99.90;;;;;;4997234;28;20227;-63
2023/09/14 03:34:37;;;;;;;6.63;1.13;;;12.80;99.90;;;;;;5036309;28;20200;-63
2023/09/14 03:37:04;;;;;;;6.32;1.63;;;12.80;99.90;;;;;;5026121;28;20200;-63
2023/09/14 03:39:31;;;;;;;3.33;1.10;;;12.90;99.90;;;;;;5038315;28;20673;-63
2023/09/14 03:41:57;;;;;;;2.70;0.90;;;12.80;99.90;;;;;;5027864;28;20232;-63
2023/09/14 03:44:26;;;;;;;4.28;1.05;;;12.90;99.90;;;;;;5027550;28;20789;-63
2023/09/14 03:46:52;;;;;;;4.68;1.20;;;13.20;99.90;;;;;;4977937;28;20233;-63
2023/09/14 03:49:19;;;;;;;1.40;0.82;;;12.90;99.90;;;;;;5028388;28;20201;-63
2023/09/14 03:51:46;;;;;;;1.45;0.90;;;12.90;99.90;;;;;;5022146;28;20201;-63
2023/09/14 03:54:13;;;;;;;2.75;1.17;;;12.80;99.90;;;;;;5025764;28;20227;-63
2023/09/14 03:56:40;;;;;;;3.42;1.10;;;12.80;99.90;;;;;;5029735;28;20258;-63
2023/09/14 03:59:07;;;;;;;3.47;1.30;;;12.80;99.90;;;;;;5038853;28;20885;-63
2023/09/14 04:01:35;;;;;;;2.58;1.23;;;12.80;99.90;;;;;;4990542;28;20315;-63
2023/09/14 04:04:02;;;;;;;2.88;1.17;;;12.80;99.90;;;;;;5033237;28;20278;-64
2023/09/14 04:06:29;;;;;;;2.47;1.00;;;12.80;99.90;;;;;;5027094;28;20201;-63
2023/09/14 04:08:56;;;;;;;2.55;1.10;;;12.80;99.90;;;;;;5032472;28;20208;-63
2023/09/14 04:11:22;;;;;;;1.67;1.15;;;12.70;99.90;;;;;;5026826;28;20232;-63
2023/09/14 04:13:49;;;;;;;1.15;0.80;;;13.60;99.90;;;;;;5035081;28;20205;-63
2023/09/14 04:16:16;;;;;;;3.13;1.20;;;12.70;99.90;;;;;;5007040;28;20244;-63
2023/09/14 04:18:44;;;;;;;1.17;0.88;;;12.70;99.90;;;;;;4983551;28;20236;-63
2023/09/14 04:21:11;;;;;;;2.13;1.10;;;12.80;99.90;;;;;;5030690;28;20217;-63
2023/09/14 04:23:38;;;;;;;1.70;1.20;;;12.70;99.90;;;;;;5009549;28;20311;-63
2023/09/14 04:26:05;;;;;;;5.65;1.23;;;12.60;99.90;;;;;;5024709;28;22262;-63
2023/09/14 04:28:32;;;;;;;2.88;1.13;;;12.80;99.90;;;;;;5031571;28;20310;-63
2023/09/14 04:31:01;;;;;;;2.90;1.08;;;12.70;99.90;;;;;;5023612;28;20204;-64
2023/09/14 04:33:29;;;;;;;3.55;1.00;;;12.70;99.90;;;;;;4992670;28;20205;-63
2023/09/14 04:35:58;;;;;;;1.17;0.90;;;12.70;99.90;;;;;;5031997;28;20197;-63
2023/09/14 04:38:25;;;;;;;3.88;1.35;;;12.70;99.90;;;;;;5015610;28;20225;-63
2023/09/14 04:40:52;;;;;;;2.80;0.95;;;12.80;99.90;;;;;;5024948;28;21015;-63
2023/09/14 04:43:20;;;;;;;2.17;1.10;;;12.80;99.90;;;;;;5026026;28;20254;-64
2023/09/14 04:45:47;;;;;;;2.47;0.88;;;12.90;99.90;;;;;;5008196;28;20529;-64
2023/09/14 04:48:15;;;;;;;4.53;1.40;;;12.90;99.90;;;;;;5023423;28;20217;-63
2023/09/14 04:50:42;;;;;;;1.73;1.05;;;12.90;99.90;;;;;;4972501;28;20248;-63
2023/09/14 04:53:11;;;;;;;6.53;1.40;;;12.90;99.90;;;;;;5013479;28;20228;-63
2023/09/14 04:55:37;;;;;;;5.28;1.60;;;13.00;99.90;;;;;;5012145;28;20232;-63
2023/09/14 04:58:06;;;;;;;4.03;1.30;;;13.00;99.90;;;;;;5025478;28;20221;-63
2023/09/14 05:00:33;;;;;;;6.25;1.20;;;13.00;99.90;;;;;;5020759;28;20255;-63
2023/09/14 05:03:02;;;;;;;6.38;1.50;;;12.90;99.90;;;;;;5015523;28;20729;-63
2023/09/14 05:05:28;;;;;;;3.72;1.15;;;13.00;99.90;;;;;;4986565;28;20243;-64
2023/09/14 05:07:55;;;;;;;3.95;1.60;;;13.00;99.90;;;;;;5016414;28;20225;-63
2023/09/14 05:10:23;;;;;;;4.88;1.52;;;13.00;99.90;;;;;;5006629;28;20232;-63
2023/09/14 05:12:50;;;;;;;1.58;1.20;;;13.00;99.90;;;;;;5030426;28;20224;-63
2023/09/14 05:15:17;;;;;;;5.22;1.50;;;13.00;99.90;;;;;;5024250;28;20240;-63
2023/09/14 05:17:44;;;;;;;3.63;1.33;;;13.00;99.90;;;;;;5024182;28;20636;-63
2023/09/14 05:20:12;;;;;;;1.80;1.20;;;13.10;99.90;;;;;;4999914;28;20323;-63
2023/09/14 05:22:39;;;;;;;3.78;1.23;;;13.00;99.90;;;;;;5040104;28;20240;-63
2023/09/14 05:25:06;;;;;;;5.68;1.52;;;13.00;99.90;;;;;;5036591;28;20223;-63
2023/09/14 05:27:38;;;;;;;4.93;1.83;;;13.00;99.90;;;;;;5024926;28;20963;-63
2023/09/14 05:30:06;;;;;;;5.95;1.45;;;13.00;99.90;;;;;;5042891;28;20701;-64
2023/09/14 05:32:33;;;;;;;4.40;1.48;;;13.40;99.90;;;;;;5033298;28;20216;-63
2023/09/14 05:35:00;;;;;;;2.67;1.25;;;12.70;99.90;;;;;;5043121;28;20201;-63
2023/09/14 05:37:27;;;;;;;8.80;1.50;;;13.00;99.90;;;;;;5000014;28;20210;-63
2023/09/14 05:39:54;;;;;;;2.42;1.00;;;13.00;99.90;;;;;;5042146;28;20618;-63
2023/09/14 05:42:22;;;;;;;5.35;1.52;;;13.10;99.90;;;;;;5027557;28;20240;-63
2023/09/14 05:44:51;;;;;;;2.30;1.08;;;13.00;99.90;;;;;;5040871;28;20194;-63
2023/09/14 05:47:17;;;;;;;4.07;1.10;;;13.20;99.90;;;;;;5038550;28;20197;-63
2023/09/14 05:49:45;;;;;;;7.80;1.20;;;13.10;99.90;;;;;;5030080;28;20197;-63
2023/09/14 05:52:12;;;;;;;4.57;1.30;;;13.20;99.90;;;;;;5008279;28;20384;-63
2023/09/14 05:54:39;;;;;;;2.45;1.27;;;13.10;99.90;;;;;;5036532;28;20208;-63
2023/09/14 05:57:06;;;;;;;6.95;1.23;;;13.20;99.90;;;;;;5038407;28;20890;-64
2023/09/14 05:59:33;;;;;;;4.53;1.23;;;13.20;99.90;;;;;;5032502;28;20710;-63
2023/09/14 06:02:01;;;;;;;3.45;1.23;;;13.20;99.90;;;;;;5045367;28;20224;-63
2023/09/14 06:04:28;;;;;;;3.25;1.30;;;13.30;99.90;;;;;;5028599;28;20221;-63
2023/09/14 06:06:55;;;;;;;2.38;1.20;;;13.30;99.90;;;;;;5032093;28;20814;-63
2023/09/14 06:09:22;;;;;;;4.35;1.35;;;13.20;99.90;;;;;;5006008;28;20444;-64
2023/09/14 06:11:49;;;;;;;4.07;1.50;;;13.30;99.90;;;;;;5042266;28;20217;-63
2023/09/14 06:14:15;;;;;;;9.88;1.70;;;13.30;99.90;;;;;;5030495;28;20215;-63
2023/09/14 06:16:42;;;;;;;6.18;1.88;;;13.30;99.90;;;;;;5039845;28;20235;-63
2023/09/14 06:19:10;;;;;;;2.15;1.50;;;13.40;99.90;;;;;;5037226;28;20200;-63
2023/09/14 06:21:37;;;;;;;2.58;1.20;;;13.30;99.90;;;;;;5026650;28;20211;-63
2023/09/14 06:24:05;;;;;;;1.98;1.08;;;13.50;99.90;;;;;;5005231;28;20228;-64
2023/09/14 06:26:31;;;;;;;2.72;1.00;;;13.50;99.90;;;;;;5033992;28;20217;-63
2023/09/14 06:28:58;;;;;;;5.55;1.50;;;13.50;99.90;;;;;;5022647;28;20228;-63
2023/09/14 06:31:25;;;;;;;7.10;1.30;;;13.50;99.90;;;;;;5036587;28;20223;-63
2023/09/14 06:33:52;;;;;;;4.10;1.20;;;13.70;99.90;;;;;;5041858;28;20228;-64
2023/09/14 06:36:20;;;;;;;1.65;1.10;;;13.70;99.90;;;;;;5032240;28;20314;-63
2023/09/14 06:38:48;;;;;;;5.22;1.45;;;13.70;99.90;;;;;;4999555;28;20609;-64
2023/09/14 06:41:16;;;;;;;2.35;1.00;;;13.80;99.90;;;;;;5038518;28;20206;-63
2023/09/14 06:43:44;;;;;;;2.88;1.20;;;13.80;99.90;;;;;;5036353;28;20232;-64
2023/09/14 06:46:11;;;;;;;5.15;1.00;;;13.60;99.90;;;;;;5040557;28;20774;-63
2023/09/14 06:48:38;;;;;;;1.58;1.20;;;13.90;99.90;;;;;;5042858;28;20200;-63
2023/09/14 06:51:05;;;;;;;2.47;1.20;;;14.00;99.90;;;;;;5044494;28;20209;-63
2023/09/14 06:53:34;;;;;;;6.25;1.52;;;14.00;99.90;;;;;;5026696;28;20216;-63
2023/09/14 06:56:06;;;;;;;5.47;1.40;;;14.00;99.90;;;;;;5008106;28;20796;-63
2023/09/14 06:58:32;;;;;;;4.00;1.30;;;14.10;99.90;;;;;;5033101;28;20251;-63
2023/09/14 07:01:02;;;;;;;4.35;1.35;;;14.20;99.90;;;;;;5044068;28;20197;-64
2023/09/14 07:03:29;;;;;;;2.50;1.45;;;14.20;99.90;;;;;;5040775;28;20271;-63
2023/09/14 07:05:56;;;;;;;3.30;1.45;;;14.20;99.90;;;;;;5025649;28;20217;-64
2023/09/14 07:08:23;;;;;;;3.65;2.00;;;14.30;99.90;;;;;;4997497;28;20243;-63
2023/09/14 07:10:51;;;;;;;6.00;1.50;;;14.30;99.90;;;;;;4992980;28;20213;-63
2023/09/14 07:13:18;;;;;;;1.70;1.20;;;14.10;99.90;;;;;;5043089;28;20204;-64
2023/09/14 07:15:45;;;;;;;6.18;1.60;;;14.30;99.90;;;;;;5033598;28;20315;-64
2023/09/14 07:18:25;;;;;;;4.68;1.50;;;14.40;99.90;;;;;;5042621;28;20200;-64
2023/09/14 07:20:52;;;;;;;9.50;1.25;;;14.40;99.90;;;;;;5045884;28;20270;-64
2023/09/14 07:23:19;;;;;;;2.10;1.55;;;14.50;99.90;;;;;;5023697;28;20224;-64
2023/09/14 07:25:47;;;;;;;4.35;1.45;;;14.50;99.90;;;;;;4998785;28;20229;-63
2023/09/14 07:28:16;;;;;;;5.40;1.77;;;14.60;99.90;;;;;;5036189;28;20216;-63
2023/09/14 07:30:43;;;;;;;4.93;1.38;;;14.60;99.90;;;;;;5037201;28;20227;-63
2023/09/14 07:33:11;;;;;;;4.13;1.63;;;14.70;99.90;;;;;;5042671;28;20216;-64
2023/09/14 07:35:39;;;;;;;4.75;1.35;;;14.70;99.90;;;;;;5038073;28;20250;-63
2023/09/14 07:38:07;;;;;;;6.53;1.40;;;14.70;99.90;;;;;;5031317;28;20259;-64
2023/09/14 07:40:34;;;;;;;2.88;1.20;;;14.60;99.90;;;;;;5003416;28;20245;-64
2023/09/14 07:43:01;;;;;;;3.85;1.20;;;14.80;99.90;;;;;;5037390;28;20221;-63
2023/09/14 07:45:30;;;;;;;5.47;1.20;;;14.80;99.90;;;;;;5032088;28;20208;-63
2023/09/14 07:47:57;;;;;;;4.50;1.63;;;14.90;99.90;;;;;;5042221;28;20223;-63
2023/09/14 07:50:23;;;;;;;4.30;1.40;;;15.00;99.90;;;;;;5041676;28;20208;-63
2023/09/14 07:52:50;;;;;;;3.53;1.95;;;15.00;99.90;;;;;;5023425;28;20229;-63
2023/09/14 07:55:17;;;;;;;3.15;1.10;;;15.10;99.90;;;;;;5013494;28;20204;-63
2023/09/14 07:57:44;;;;;;;3.55;1.20;;;15.10;99.90;;;;;;5002187;28;20228;-63
2023/09/14 08:00:13;;;;;;;4.55;1.60;;;15.00;99.90;;;;;;5045935;28;20201;-64
2023/09/14 08:02:41;;;;;;;5.88;1.48;;;15.20;99.90;;;;;;5028526;28;20267;-63
2023/09/14 08:05:08;;;;;;;2.70;1.15;;;15.10;99.90;;;;;;5042577;28;20197;-63
2023/09/14 08:07:35;;;;;;;3.67;1.60;;;16.10;99.90;;;;;;5033924;28;20277;-64
2023/09/14 08:10:02;;;;;;;3.35;1.42;;;15.10;99.90;;;;;;5021307;28;20205;-63
2023/09/14 08:12:29;;;;;;;5.05;1.42;;;15.10;99.90;;;;;;4999590;28;20208;-63
2023/09/14 08:14:55;;;;;;;3.15;1.65;;;15.30;99.90;;;;;;5046308;28;20238;-63
2023/09/14 08:17:23;;;;;;;5.30;1.52;;;15.80;99.90;;;;;;5044727;28;20192;-63
2023/09/14 08:19:51;;;;;;;5.55;1.55;;;15.40;99.90;;;;;;5046696;28;20201;-63
2023/09/14 08:22:22;;;;;;;1.85;1.15;;;15.40;99.90;;;;;;5029092;28;20622;-63
2023/09/14 08:24:49;;;;;;;3.25;1.40;;;16.30;99.90;;;;;;5028292;28;20204;-63
2023/09/14 08:27:16;;;;;;;2.83;1.20;;;15.50;99.90;;;;;;4977694;28;20215;-63
2023/09/14 08:29:44;;;;;;;2.13;1.52;;;15.60;99.90;;;;;;5038489;28;20201;-63
2023/09/14 08:32:11;;;;;;;2.45;1.00;;;15.70;99.90;;;;;;5047418;28;20267;-64
2023/09/14 08:34:38;;;;;;;4.70;1.23;;;15.70;99.90;;;;;;5044732;28;20196;-63
2023/09/14 08:37:09;;;;;;;2.92;1.20;;;19.10;99.90;;;;;;5046607;28;20197;-64
2023/09/14 08:39:36;;;;;;;4.13;1.08;;;15.70;99.90;;;;;;5035690;28;20208;-64
2023/09/14 08:42:02;;;;;;;2.20;1.00;;;15.70;99.90;;;;;;5038873;28;20208;-64
2023/09/14 08:44:33;;;;;;;2.58;1.20;;;15.90;99.90;;;;;;5002408;28;20224;-63
2023/09/14 08:47:01;;;;;;;2.95;1.48;;;15.90;99.90;;;;;;5041002;28;20220;-63
2023/09/14 08:49:31;;;;;;;4.22;1.23;;;15.90;99.90;;;;;;5039139;28;20208;-63
2023/09/14 08:52:02;;;;;;;5.43;1.38;;;15.90;99.90;;;;;;5045348;28;20201;-63
2023/09/14 08:54:30;;;;;;;2.35;0.93;;;16.00;99.90;;;;;;5019340;28;20204;-63
2023/09/14 08:56:57;;;;;;;5.03;1.13;;;16.00;99.90;;;;;;5027209;28;20230;-63
2023/09/14 08:59:25;;;;;;;4.53;1.42;;;16.20;99.90;;;;;;4997936;28;20236;-64
2023/09/14 09:01:53;;;;;;;2.40;1.25;;;16.20;99.90;;;;;;5003060;28;20248;-63
2023/09/14 09:04:20;;;;;;;4.03;1.25;;;16.20;99.90;;;;;;5039349;28;20232;-63
2023/09/14 09:06:48;;;;;;;3.28;1.13;;;16.20;99.90;;;;;;5037052;28;20217;-64
2023/09/14 09:09:19;;;;;;;3.50;1.08;;;16.20;99.90;;;;;;5022686;28;21682;-63
2023/09/14 09:11:47;;;;;;;4.25;1.10;;;16.10;99.90;;;;;;5021339;28;20512;-63
2023/09/14 09:14:14;;;;;;;2.13;1.10;;;16.20;99.90;;;;;;5007368;28;20215;-63
2023/09/14 09:16:41;;;;;;;3.33;1.10;;;16.30;99.90;;;;;;5037728;28;20437;-64
2023/09/14 09:19:10;;;;;;;3.92;1.00;;;16.30;99.90;;;;;;5040464;28;20240;-63
2023/09/14 09:21:38;;;;;;;3.63;1.13;;;16.30;99.90;;;;;;5026378;28;20307;-63
2023/09/14 09:24:06;;;;;;;5.85;1.27;;;16.30;99.90;;;;;;5025524;28;20761;-63
2023/09/14 09:26:35;;;;;;;0.95;0.75;;;16.40;99.90;;;;;;5027118;28;20613;-63
2023/09/14 09:29:14;;;;;;;4.32;1.30;;;16.40;99.90;;;;;;4999739;28;20209;-63
2023/09/14 09:31:42;;;;;;;2.92;1.02;;;16.40;99.90;;;;;;5039291;28;20401;-64
2023/09/14 09:34:10;;;;;;;8.88;1.20;;;16.40;99.90;;;;;;5039595;28;20193;-63
2023/09/14 09:36:37;;;;;;;3.03;0.80;;;16.40;99.90;;;;;;5034875;28;20406;-63
2023/09/14 09:39:05;;;;;;;6.63;1.23;;;16.40;99.90;;;;;;5030420;28;20205;-63
2023/09/14 09:41:33;;;;;;;6.93;1.40;;;16.40;99.90;;;;;;5028868;28;20201;-63
2023/09/14 09:44:00;;;;;;;2.63;1.52;;;16.50;99.90;;;;;;4991344;28;21010;-63
2023/09/14 09:46:28;;;;;;;1.65;0.95;;;16.50;99.90;;;;;;5029133;28;20344;-64
2023/09/14 09:48:55;;;;;;;2.67;0.93;;;16.50;99.90;;;;;;5025175;28;20224;-63
2023/09/14 09:51:24;;;;;;;1.83;0.85;;;16.60;99.90;;;;;;5040636;28;20205;-64
2023/09/14 09:54:05;;;;;;;2.13;0.95;;;16.50;99.90;;;;;;5043299;28;20197;-63
2023/09/14 09:56:34;;;;;;;1.55;0.95;;;16.50;99.90;;;;;;5023199;28;20207;-63
2023/09/14 09:59:03;;;;;;;2.72;1.00;;;16.50;99.90;;;;;;5038593;28;20697;-63
2023/09/14 10:01:31;;;;;;;9.07;1.13;;;16.60;99.90;;;;;;5009365;28;20217;-63
2023/09/14 10:03:59;;;;;;;8.32;1.27;;;16.70;99.90;;;;;;5043459;28;20259;-63
2023/09/14 10:06:27;;;;;;;5.85;1.27;;;17.10;99.90;;;;;;5041973;28;20204;-63
2023/09/14 10:08:56;;;;;;;3.22;1.15;;;16.60;99.90;;;;;;5043994;28;20201;-63
2023/09/14 10:11:25;;;;;;;4.28;0.80;;;16.50;99.90;;;;;;5032891;28;20228;-64
2023/09/14 10:13:53;;;;;;;2.38;0.80;;;16.50;99.90;;;;;;5020403;28;20205;-63
2023/09/14 10:16:23;;;;;;;1.67;0.80;;;17.80;99.90;;;;;;4983108;28;20277;-64
2023/09/14 10:18:55;;;;;;;2.10;0.88;;;16.20;99.90;;;;;;5037762;28;20200;-63
2023/09/14 10:21:24;;;;;;;3.47;2.45;;;16.60;99.90;;;;;;5047065;28;20208;-63
2023/09/14 10:23:52;;;;;;;0.98;0.60;;;16.60;99.90;;;;;;5040425;28;20221;-63
2023/09/14 10:26:20;;;;;;;1.35;0.93;;;16.60;99.90;;;;;;5028773;28;20828;-63
2023/09/14 10:28:48;;;;;;;1.45;1.20;;;16.60;99.90;;;;;;5021918;28;20205;-63
2023/09/14 10:31:17;;;;;;;2.40;1.05;;;16.60;99.90;;;;;;5007393;28;20221;-62
2023/09/14 10:33:46;;;;;;;3.33;0.90;;;16.60;99.90;;;;;;5034566;28;20197;-63
2023/09/14 10:36:16;;;;;;;1.52;1.23;;;16.60;99.90;;;;;;5034151;28;20701;-64
2023/09/14 10:38:44;;;;;;;0.70;0.70;;;16.60;99.90;;;;;;5034428;28;20332;-64
2023/09/14 10:41:12;;;;;;;1.17;0.70;;;16.60;99.90;;;;;;5033419;28;20495;-63
2023/09/14 10:43:41;;;;;;;2.97;0.70;;;16.70;99.90;;;;;;5028078;28;20232;-63
2023/09/14 10:46:14;;;;;;;2.17;1.15;;;16.70;99.90;;;;;;5003245;28;20645;-63
2023/09/14 10:48:41;;;;;;;8.05;0.80;;;16.70;99.90;;;;;;5033668;28;20227;-63
2023/09/14 10:51:11;;;;;;;2.70;0.82;;;16.80;99.90;;;;;;5039986;28;20201;-63
2023/09/14 10:53:41;;;;;;;3.28;0.90;;;16.70;99.90;;;;;;5046512;28;20221;-64
2023/09/14 10:56:20;;;;;;;0.85;0.80;;;16.80;99.90;;;;;;5026275;28;20247;-63
2023/09/14 10:58:51;;;;;;;0.75;0.60;;;16.70;99.90;;;;;;4999889;28;20847;-63
2023/09/14 11:01:24;;;;;;;1.95;1.00;;;16.90;99.90;;;;;;4993270;28;20232;-63
2023/09/14 11:04:08;;;;;;;0.75;0.75;;;14.20;99.90;;;;;;5023837;28;21238;-63
2023/09/14 11:06:46;;;;;;;6.80;1.20;;;16.90;99.90;;;;;;5014589;28;20522;-63
2023/09/14 11:09:17;;;;;;;2.13;1.25;;;16.90;99.90;;;;;;5021429;28;20201;-63
2023/09/14 11:11:46;;;;;;;1.65;1.00;;;16.90;99.90;;;;;;5033171;28;20192;-63
2023/09/14 11:14:14;;;;;;;5.88;1.42;;;16.90;99.90;;;;;;5019628;28;20212;-63
2023/09/14 11:16:52;;;;;;;3.65;1.10;;;16.80;99.90;;;;;;4992457;28;21398;-63
2023/09/14 11:19:45;;;;;;;3.38;1.00;;;16.90;99.90;;;;;;5020964;28;20584;-63
2023/09/14 11:22:13;;;;;;;2.13;0.90;;;16.80;99.90;;;;;;5036642;28;20223;-63
2023/09/14 11:24:42;;;;;;;2.05;1.02;;;17.00;99.90;;;;;;5015479;28;20233;-63
2023/09/14 11:27:17;;;;;;;1.90;0.80;;;17.00;99.90;;;;;;5030968;28;20755;-63
2023/09/14 11:29:45;;;;;;;5.60;1.05;;;17.00;99.90;;;;;;5009342;28;20211;-63
2023/09/14 11:32:19;;;;;;;2.17;0.63;;;17.00;99.90;;;;;;5019883;28;20522;-63
2023/09/14 11:34:47;;;;;;;3.83;0.95;;;17.00;99.90;;;;;;5002383;28;20954;-63
2023/09/14 11:37:15;;;;;;;1.58;0.80;;;17.00;99.90;;;;;;5022415;28;20578;-63
2023/09/14 11:39:53;;;;;;;3.10;1.00;;;16.60;99.90;;;;;;5031224;28;20197;-63
2023/09/14 11:42:20;;;;;;;1.05;0.93;;;17.00;99.90;;;;;;5028509;28;20219;-63
2023/09/14 11:44:49;;;;;;;1.17;0.70;;;17.10;99.90;;;;;;5018681;28;20236;-63
2023/09/14 11:47:17;;;;;;;3.13;0.98;;;17.10;99.90;;;;;;5022929;28;20230;-63
2023/09/14 11:49:47;;;;;;;2.45;0.82;;;17.10;99.90;;;;;;4982681;28;20526;-63
2023/09/14 11:52:19;;;;;;;2.35;0.95;;;17.10;99.90;;;;;;5041005;28;20671;-63
2023/09/14 11:54:51;;;;;;;3.92;1.08;;;17.20;99.90;;;;;;5036694;28;20394;-63
2023/09/14 11:57:27;;;;;;;4.72;1.05;;;17.20;99.90;;;;;;5024425;28;20315;-63
2023/09/14 11:59:54;;;;;;;3.55;0.90;;;17.30;99.90;;;;;;5005930;28;20220;-63
2023/09/14 12:02:20;;;;;;;3.38;1.08;;;17.40;99.90;;;;;;5028450;28;20212;-63
2023/09/14 12:04:48;;;;;;;2.75;1.00;;;17.30;99.90;;;;;;4997112;28;20878;-63
2023/09/14 12:07:15;;;;;;;3.45;1.00;;;17.40;99.90;;;;;;5027137;28;20806;-63
2023/09/14 12:09:43;;;;;;;2.10;0.98;;;17.40;99.90;;;;;;5030660;28;20960;-63
2023/09/14 12:12:25;;;;;;;1.17;0.90;;;17.40;99.90;;;;;;5014180;28;20286;-63
2023/09/14 12:14:52;;;;;;;2.35;0.70;;;17.40;99.90;;;;;;5023883;28;20357;-63
2023/09/14 12:17:20;;;;;;;0.70;0.60;;;17.40;99.90;;;;;;5016809;28;20224;-63
2023/09/14 12:19:50;;;;;;;2.28;0.93;;;17.40;99.90;;;;;;5037857;28;20209;-63
2023/09/14 12:22:18;;;;;;;1.02;0.57;;;17.30;99.90;;;;;;4984975;28;20517;-63
2023/09/14 12:24:46;;;;;;;2.35;1.08;;;17.30;99.90;;;;;;5032789;28;20234;-63
2023/09/14 12:27:14;;;;;;;0.98;0.80;;;17.30;99.90;;;;;;5029649;28;20208;-63
2023/09/14 12:29:43;;;;;;;3.72;0.88;;;17.40;99.90;;;;;;5033627;28;20213;-63
2023/09/14 12:32:10;;;;;;;1.30;0.90;;;17.40;99.90;;;;;;5009945;28;20200;-63
2023/09/14 12:34:37;;;;;;;2.85;1.08;;;17.30;99.90;;;;;;5037011;28;20279;-63
2023/09/14 12:37:04;;;;;;;3.33;1.10;;;17.30;99.90;;;;;;4991889;28;20217;-63
2023/09/14 12:39:32;;;;;;;3.15;1.02;;;17.30;99.90;;;;;;5030118;28;20579;-63
2023/09/14 12:42:02;;;;;;;2.20;0.95;;;17.30;99.90;;;;;;5035270;28;20209;-63
2023/09/14 12:44:31;;;;;;;3.42;1.10;;;17.40;99.90;;;;;;5030294;28;20240;-63
2023/09/14 12:46:58;;;;;;;1.48;0.75;;;17.40;99.90;;;;;;5018605;28;20197;-63
2023/09/14 12:49:25;;;;;;;1.48;0.73;;;17.40;99.90;;;;;;5022361;28;20569;-63
2023/09/14 12:51:52;;;;;;;1.70;0.85;;;17.40;99.90;;;;;;5030774;28;20204;-63
2023/09/14 12:54:25;;;;;;;3.95;1.20;;;17.40;99.90;;;;;;4994682;28;20357;-63